sensor_id;sensor_type;location;lat;lon;timestamp;P1;durP1;ratioP1;P2;durP2;ratioP2
17398;SDS011;8817;48.170;8.592;2023-01-29T00:01:18;7.47;;;5.73;;
17398;SDS011;8817;48.170;8.592;2023-01-29T00:03:44;6.87;;;6.27;;
17398;SDS011;8817;48.170;8.592;2023-01-29T00:06:11;6.50;;;5.97;;
17398;SDS011;8817;48.170;8.592;2023-01-29T00:08:39;9.97;;;7.00;;
17398;SDS011;8817;48.170;8.592;2023-01-29T00:11:07;5.93;;;5.40;;
17398;SDS011;8817;48.170;8.592;2023-01-29T00:13:34;7.53;;;6.03;;
17398;SDS011;8817;48.170;8.592;2023-01-29T00:16:01;6.80;;;6.10;;
17398;SDS011;8817;48.170;8.592;2023-01-29T00:18:29;8.17;;;6.43;;
17398;SDS011;8817;48.170;8.592;2023-01-29T00:20:56;8.20;;;6.83;;
17398;SDS011;8817;48.170;8.592;2023-01-29T00:23:23;6.33;;;5.73;;
17398;SDS011;8817;48.170;8.592;2023-01-29T00:25:51;6.00;;;5.40;;
17398;SDS011;8817;48.170;8.592;2023-01-29T00:28:18;6.97;;;6.30;;
17398;SDS011;8817;48.170;8.592;2023-01-29T00:30:45;8.70;;;7.30;;
17398;SDS011;8817;48.170;8.592;2023-01-29T00:33:12;7.50;;;6.63;;
17398;SDS011;8817;48.170;8.592;2023-01-29T00:35:39;7.67;;;6.40;;
17398;SDS011;8817;48.170;8.592;2023-01-29T00:38:07;7.10;;;6.40;;
17398;SDS011;8817;48.170;8.592;2023-01-29T00:40:35;6.77;;;6.00;;
17398;SDS011;8817;48.170;8.592;2023-01-29T00:43:19;7.97;;;6.20;;
17398;SDS011;8817;48.170;8.592;2023-01-29T00:46:04;6.70;;;6.10;;
17398;SDS011;8817;48.170;8.592;2023-01-29T00:48:31;6.20;;;5.60;;
17398;SDS011;8817;48.170;8.592;2023-01-29T00:50:58;5.93;;;5.53;;
17398;SDS011;8817;48.170;8.592;2023-01-29T00:53:25;5.97;;;5.53;;
17398;SDS011;8817;48.170;8.592;2023-01-29T00:55:53;8.90;;;6.17;;
17398;SDS011;8817;48.170;8.592;2023-01-29T00:58:21;7.23;;;5.73;;
17398;SDS011;8817;48.170;8.592;2023-01-29T01:00:58;6.40;;;5.80;;
17398;SDS011;8817;48.170;8.592;2023-01-29T01:03:26;11.83;;;6.20;;
17398;SDS011;8817;48.170;8.592;2023-01-29T01:06:01;6.53;;;5.93;;
17398;SDS011;8817;48.170;8.592;2023-01-29T01:08:29;8.67;;;6.50;;
17398;SDS011;8817;48.170;8.592;2023-01-29T01:11:13;5.90;;;5.40;;
17398;SDS011;8817;48.170;8.592;2023-01-29T01:13:42;7.87;;;6.63;;
17398;SDS011;8817;48.170;8.592;2023-01-29T01:16:09;7.17;;;5.67;;
17398;SDS011;8817;48.170;8.592;2023-01-29T01:18:36;5.97;;;5.47;;
17398;SDS011;8817;48.170;8.592;2023-01-29T01:21:03;6.17;;;5.50;;
17398;SDS011;8817;48.170;8.592;2023-01-29T01:23:31;5.47;;;5.13;;
17398;SDS011;8817;48.170;8.592;2023-01-29T01:25:58;6.17;;;5.60;;
17398;SDS011;8817;48.170;8.592;2023-01-29T01:28:25;6.87;;;5.73;;
17398;SDS011;8817;48.170;8.592;2023-01-29T01:30:54;6.37;;;5.83;;
17398;SDS011;8817;48.170;8.592;2023-01-29T01:33:21;8.10;;;6.30;;
17398;SDS011;8817;48.170;8.592;2023-01-29T01:35:49;6.43;;;5.73;;
17398;SDS011;8817;48.170;8.592;2023-01-29T01:38:16;6.20;;;5.67;;
17398;SDS011;8817;48.170;8.592;2023-01-29T01:40:43;6.47;;;5.87;;
17398;SDS011;8817;48.170;8.592;2023-01-29T01:43:11;6.43;;;5.83;;
17398;SDS011;8817;48.170;8.592;2023-01-29T01:45:38;6.87;;;6.17;;
17398;SDS011;8817;48.170;8.592;2023-01-29T01:48:08;7.50;;;6.70;;
17398;SDS011;8817;48.170;8.592;2023-01-29T01:50:38;6.13;;;5.67;;
17398;SDS011;8817;48.170;8.592;2023-01-29T01:53:11;5.77;;;5.43;;
17398;SDS011;8817;48.170;8.592;2023-01-29T01:55:40;9.87;;;6.10;;
17398;SDS011;8817;48.170;8.592;2023-01-29T01:58:13;5.57;;;5.27;;
17398;SDS011;8817;48.170;8.592;2023-01-29T02:00:46;6.23;;;5.70;;
17398;SDS011;8817;48.170;8.592;2023-01-29T02:03:14;6.30;;;5.80;;
17398;SDS011;8817;48.170;8.592;2023-01-29T02:06:02;5.37;;;4.93;;
17398;SDS011;8817;48.170;8.592;2023-01-29T02:08:49;6.47;;;5.87;;
17398;SDS011;8817;48.170;8.592;2023-01-29T02:11:37;6.50;;;5.87;;
17398;SDS011;8817;48.170;8.592;2023-01-29T02:14:05;6.27;;;5.70;;
17398;SDS011;8817;48.170;8.592;2023-01-29T02:16:33;5.97;;;5.47;;
17398;SDS011;8817;48.170;8.592;2023-01-29T02:19:02;5.77;;;5.27;;
17398;SDS011;8817;48.170;8.592;2023-01-29T02:21:49;5.27;;;4.97;;
17398;SDS011;8817;48.170;8.592;2023-01-29T02:24:44;5.17;;;4.77;;
17398;SDS011;8817;48.170;8.592;2023-01-29T02:27:37;5.37;;;4.97;;
17398;SDS011;8817;48.170;8.592;2023-01-29T02:30:15;5.53;;;5.13;;
17398;SDS011;8817;48.170;8.592;2023-01-29T02:32:48;5.23;;;4.87;;
17398;SDS011;8817;48.170;8.592;2023-01-29T02:35:25;6.80;;;5.60;;
17398;SDS011;8817;48.170;8.592;2023-01-29T02:38:00;6.43;;;5.20;;
17398;SDS011;8817;48.170;8.592;2023-01-29T02:40:35;6.53;;;6.03;;
17398;SDS011;8817;48.170;8.592;2023-01-29T02:43:13;5.67;;;5.27;;
17398;SDS011;8817;48.170;8.592;2023-01-29T02:45:52;5.13;;;4.83;;
17398;SDS011;8817;48.170;8.592;2023-01-29T02:48:26;5.73;;;5.27;;
17398;SDS011;8817;48.170;8.592;2023-01-29T02:51:00;6.57;;;5.50;;
17398;SDS011;8817;48.170;8.592;2023-01-29T02:53:31;5.90;;;5.30;;
17398;SDS011;8817;48.170;8.592;2023-01-29T02:56:06;5.77;;;5.27;;
17398;SDS011;8817;48.170;8.592;2023-01-29T02:58:37;6.03;;;5.27;;
17398;SDS011;8817;48.170;8.592;2023-01-29T03:01:10;6.23;;;5.63;;
17398;SDS011;8817;48.170;8.592;2023-01-29T03:03:40;6.07;;;5.27;;
17398;SDS011;8817;48.170;8.592;2023-01-29T03:06:11;5.77;;;5.37;;
17398;SDS011;8817;48.170;8.592;2023-01-29T03:08:46;5.83;;;5.33;;
17398;SDS011;8817;48.170;8.592;2023-01-29T03:11:19;5.30;;;4.93;;
17398;SDS011;8817;48.170;8.592;2023-01-29T03:13:47;6.13;;;5.53;;
17398;SDS011;8817;48.170;8.592;2023-01-29T03:16:19;5.57;;;5.27;;
17398;SDS011;8817;48.170;8.592;2023-01-29T03:18:52;6.00;;;5.50;;
17398;SDS011;8817;48.170;8.592;2023-01-29T03:21:24;5.53;;;5.10;;
17398;SDS011;8817;48.170;8.592;2023-01-29T03:24:12;5.93;;;5.33;;
17398;SDS011;8817;48.170;8.592;2023-01-29T03:27:00;5.83;;;5.40;;
17398;SDS011;8817;48.170;8.592;2023-01-29T03:29:47;5.23;;;4.87;;
17398;SDS011;8817;48.170;8.592;2023-01-29T03:32:34;5.87;;;5.37;;
17398;SDS011;8817;48.170;8.592;2023-01-29T03:35:02;5.30;;;4.90;;
17398;SDS011;8817;48.170;8.592;2023-01-29T03:37:34;5.80;;;5.10;;
17398;SDS011;8817;48.170;8.592;2023-01-29T03:40:05;7.67;;;5.10;;
17398;SDS011;8817;48.170;8.592;2023-01-29T03:42:37;5.43;;;4.93;;
17398;SDS011;8817;48.170;8.592;2023-01-29T03:45:18;4.77;;;4.57;;
17398;SDS011;8817;48.170;8.592;2023-01-29T03:47:53;5.17;;;4.60;;
17398;SDS011;8817;48.170;8.592;2023-01-29T03:50:30;4.57;;;4.17;;
17398;SDS011;8817;48.170;8.592;2023-01-29T03:53:03;3.97;;;3.87;;
17398;SDS011;8817;48.170;8.592;2023-01-29T03:55:36;4.90;;;4.60;;
17398;SDS011;8817;48.170;8.592;2023-01-29T03:58:09;4.77;;;4.57;;
17398;SDS011;8817;48.170;8.592;2023-01-29T04:00:47;5.63;;;5.23;;
17398;SDS011;8817;48.170;8.592;2023-01-29T04:03:19;5.90;;;5.30;;
17398;SDS011;8817;48.170;8.592;2023-01-29T04:05:50;5.50;;;5.10;;
17398;SDS011;8817;48.170;8.592;2023-01-29T04:08:22;5.57;;;5.10;;
17398;SDS011;8817;48.170;8.592;2023-01-29T04:10:53;6.97;;;5.73;;
17398;SDS011;8817;48.170;8.592;2023-01-29T04:13:24;5.43;;;5.07;;
17398;SDS011;8817;48.170;8.592;2023-01-29T04:15:55;4.60;;;4.20;;
17398;SDS011;8817;48.170;8.592;2023-01-29T04:18:24;4.50;;;4.20;;
17398;SDS011;8817;48.170;8.592;2023-01-29T04:20:52;4.47;;;4.27;;
17398;SDS011;8817;48.170;8.592;2023-01-29T04:23:19;4.47;;;4.30;;
17398;SDS011;8817;48.170;8.592;2023-01-29T04:25:51;3.60;;;3.60;;
17398;SDS011;8817;48.170;8.592;2023-01-29T04:28:22;4.53;;;4.23;;
17398;SDS011;8817;48.170;8.592;2023-01-29T04:30:54;4.37;;;4.07;;
17398;SDS011;8817;48.170;8.592;2023-01-29T04:33:33;4.70;;;4.40;;
17398;SDS011;8817;48.170;8.592;2023-01-29T04:36:12;4.40;;;4.20;;
17398;SDS011;8817;48.170;8.592;2023-01-29T04:38:54;4.40;;;4.20;;
17398;SDS011;8817;48.170;8.592;2023-01-29T04:41:29;5.13;;;4.80;;
17398;SDS011;8817;48.170;8.592;2023-01-29T04:44:03;4.60;;;4.30;;
17398;SDS011;8817;48.170;8.592;2023-01-29T04:46:36;4.97;;;4.60;;
17398;SDS011;8817;48.170;8.592;2023-01-29T04:49:13;4.70;;;4.50;;
17398;SDS011;8817;48.170;8.592;2023-01-29T04:51:47;4.73;;;4.53;;
17398;SDS011;8817;48.170;8.592;2023-01-29T04:54:23;4.63;;;4.40;;
17398;SDS011;8817;48.170;8.592;2023-01-29T04:56:57;5.30;;;4.83;;
17398;SDS011;8817;48.170;8.592;2023-01-29T04:59:32;4.50;;;4.27;;
17398;SDS011;8817;48.170;8.592;2023-01-29T05:02:03;4.70;;;4.43;;
17398;SDS011;8817;48.170;8.592;2023-01-29T05:04:35;4.50;;;4.23;;
17398;SDS011;8817;48.170;8.592;2023-01-29T05:07:05;4.80;;;4.60;;
17398;SDS011;8817;48.170;8.592;2023-01-29T05:09:37;4.57;;;4.37;;
17398;SDS011;8817;48.170;8.592;2023-01-29T05:12:05;4.67;;;4.47;;
17398;SDS011;8817;48.170;8.592;2023-01-29T05:14:35;4.30;;;4.10;;
17398;SDS011;8817;48.170;8.592;2023-01-29T05:17:07;4.63;;;4.33;;
17398;SDS011;8817;48.170;8.592;2023-01-29T05:19:38;5.23;;;4.73;;
17398;SDS011;8817;48.170;8.592;2023-01-29T05:22:05;5.17;;;4.87;;
17398;SDS011;8817;48.170;8.592;2023-01-29T05:24:34;4.70;;;4.43;;
17398;SDS011;8817;48.170;8.592;2023-01-29T05:27:02;5.17;;;4.87;;
17398;SDS011;8817;48.170;8.592;2023-01-29T05:29:46;5.03;;;4.70;;
17398;SDS011;8817;48.170;8.592;2023-01-29T05:32:14;4.83;;;4.63;;
17398;SDS011;8817;48.170;8.592;2023-01-29T05:34:42;4.37;;;4.13;;
17398;SDS011;8817;48.170;8.592;2023-01-29T05:37:09;4.70;;;4.30;;
17398;SDS011;8817;48.170;8.592;2023-01-29T05:39:36;4.50;;;4.30;;
17398;SDS011;8817;48.170;8.592;2023-01-29T05:42:03;4.90;;;4.60;;
17398;SDS011;8817;48.170;8.592;2023-01-29T05:44:30;4.77;;;4.47;;
17398;SDS011;8817;48.170;8.592;2023-01-29T05:46:56;4.63;;;4.40;;
17398;SDS011;8817;48.170;8.592;2023-01-29T05:49:23;4.60;;;4.43;;
17398;SDS011;8817;48.170;8.592;2023-01-29T05:51:51;5.00;;;4.80;;
17398;SDS011;8817;48.170;8.592;2023-01-29T05:54:18;5.23;;;4.93;;
17398;SDS011;8817;48.170;8.592;2023-01-29T05:56:45;4.57;;;4.40;;
17398;SDS011;8817;48.170;8.592;2023-01-29T05:59:13;4.77;;;4.57;;
17398;SDS011;8817;48.170;8.592;2023-01-29T06:01:40;4.90;;;4.60;;
17398;SDS011;8817;48.170;8.592;2023-01-29T06:04:07;4.40;;;4.20;;
17398;SDS011;8817;48.170;8.592;2023-01-29T06:06:34;4.50;;;4.30;;
17398;SDS011;8817;48.170;8.592;2023-01-29T06:09:02;4.40;;;4.10;;
17398;SDS011;8817;48.170;8.592;2023-01-29T06:11:29;5.47;;;5.07;;
17398;SDS011;8817;48.170;8.592;2023-01-29T06:13:56;5.10;;;4.60;;
17398;SDS011;8817;48.170;8.592;2023-01-29T06:16:23;5.03;;;4.63;;
17398;SDS011;8817;48.170;8.592;2023-01-29T06:18:50;4.60;;;4.30;;
17398;SDS011;8817;48.170;8.592;2023-01-29T06:21:17;4.20;;;4.10;;
17398;SDS011;8817;48.170;8.592;2023-01-29T06:23:44;5.00;;;4.60;;
17398;SDS011;8817;48.170;8.592;2023-01-29T06:26:12;4.27;;;4.10;;
17398;SDS011;8817;48.170;8.592;2023-01-29T06:28:41;5.37;;;4.93;;
17398;SDS011;8817;48.170;8.592;2023-01-29T06:31:09;4.30;;;4.20;;
17398;SDS011;8817;48.170;8.592;2023-01-29T06:33:36;4.27;;;4.10;;
17398;SDS011;8817;48.170;8.592;2023-01-29T06:36:03;4.30;;;4.10;;
17398;SDS011;8817;48.170;8.592;2023-01-29T06:38:31;4.20;;;4.10;;
17398;SDS011;8817;48.170;8.592;2023-01-29T06:40:58;4.67;;;4.47;;
17398;SDS011;8817;48.170;8.592;2023-01-29T06:43:26;5.10;;;4.70;;
17398;SDS011;8817;48.170;8.592;2023-01-29T06:45:53;4.20;;;3.97;;
17398;SDS011;8817;48.170;8.592;2023-01-29T06:48:21;4.50;;;4.30;;
17398;SDS011;8817;48.170;8.592;2023-01-29T06:50:50;4.70;;;4.40;;
17398;SDS011;8817;48.170;8.592;2023-01-29T06:53:19;4.10;;;4.00;;
17398;SDS011;8817;48.170;8.592;2023-01-29T06:55:49;4.13;;;3.93;;
17398;SDS011;8817;48.170;8.592;2023-01-29T06:58:17;4.10;;;4.00;;
17398;SDS011;8817;48.170;8.592;2023-01-29T07:00:47;4.50;;;4.27;;
17398;SDS011;8817;48.170;8.592;2023-01-29T07:03:14;4.47;;;4.17;;
17398;SDS011;8817;48.170;8.592;2023-01-29T07:05:41;4.40;;;4.27;;
17398;SDS011;8817;48.170;8.592;2023-01-29T07:08:08;4.40;;;4.20;;
17398;SDS011;8817;48.170;8.592;2023-01-29T07:10:35;4.50;;;4.30;;
17398;SDS011;8817;48.170;8.592;2023-01-29T07:13:02;4.00;;;3.90;;
17398;SDS011;8817;48.170;8.592;2023-01-29T07:15:29;5.13;;;4.87;;
17398;SDS011;8817;48.170;8.592;2023-01-29T07:17:58;4.30;;;4.20;;
17398;SDS011;8817;48.170;8.592;2023-01-29T07:20:27;4.20;;;4.00;;
17398;SDS011;8817;48.170;8.592;2023-01-29T07:22:55;3.90;;;3.80;;
17398;SDS011;8817;48.170;8.592;2023-01-29T07:25:23;4.10;;;4.00;;
17398;SDS011;8817;48.170;8.592;2023-01-29T07:27:50;4.00;;;3.90;;
17398;SDS011;8817;48.170;8.592;2023-01-29T07:30:17;4.60;;;4.40;;
17398;SDS011;8817;48.170;8.592;2023-01-29T07:32:45;4.33;;;4.13;;
17398;SDS011;8817;48.170;8.592;2023-01-29T07:35:13;4.20;;;4.10;;
17398;SDS011;8817;48.170;8.592;2023-01-29T07:37:40;4.17;;;4.07;;
17398;SDS011;8817;48.170;8.592;2023-01-29T07:40:08;3.83;;;3.70;;
17398;SDS011;8817;48.170;8.592;2023-01-29T07:42:36;4.03;;;3.83;;
17398;SDS011;8817;48.170;8.592;2023-01-29T07:45:04;4.00;;;3.90;;
17398;SDS011;8817;48.170;8.592;2023-01-29T07:47:32;4.33;;;4.03;;
17398;SDS011;8817;48.170;8.592;2023-01-29T07:49:59;3.77;;;3.73;;
17398;SDS011;8817;48.170;8.592;2023-01-29T07:52:29;4.27;;;4.07;;
17398;SDS011;8817;48.170;8.592;2023-01-29T07:54:56;4.20;;;4.00;;
17398;SDS011;8817;48.170;8.592;2023-01-29T07:57:23;4.20;;;4.00;;
17398;SDS011;8817;48.170;8.592;2023-01-29T07:59:50;4.10;;;3.90;;
17398;SDS011;8817;48.170;8.592;2023-01-29T08:02:17;4.37;;;4.20;;
17398;SDS011;8817;48.170;8.592;2023-01-29T08:04:44;3.90;;;3.80;;
17398;SDS011;8817;48.170;8.592;2023-01-29T08:07:11;4.50;;;4.30;;
17398;SDS011;8817;48.170;8.592;2023-01-29T08:09:39;4.23;;;4.13;;
17398;SDS011;8817;48.170;8.592;2023-01-29T08:12:06;4.30;;;4.20;;
17398;SDS011;8817;48.170;8.592;2023-01-29T08:14:33;4.50;;;4.30;;
17398;SDS011;8817;48.170;8.592;2023-01-29T08:17:00;4.33;;;4.13;;
17398;SDS011;8817;48.170;8.592;2023-01-29T08:19:27;4.40;;;4.30;;
17398;SDS011;8817;48.170;8.592;2023-01-29T08:21:54;4.60;;;4.40;;
17398;SDS011;8817;48.170;8.592;2023-01-29T08:24:21;5.03;;;4.73;;
17398;SDS011;8817;48.170;8.592;2023-01-29T08:26:49;4.20;;;4.10;;
17398;SDS011;8817;48.170;8.592;2023-01-29T08:29:16;4.03;;;3.83;;
17398;SDS011;8817;48.170;8.592;2023-01-29T08:31:43;4.03;;;3.87;;
17398;SDS011;8817;48.170;8.592;2023-01-29T08:34:10;4.37;;;4.20;;
17398;SDS011;8817;48.170;8.592;2023-01-29T08:36:37;4.60;;;4.30;;
17398;SDS011;8817;48.170;8.592;2023-01-29T08:39:03;4.37;;;4.17;;
17398;SDS011;8817;48.170;8.592;2023-01-29T08:41:30;4.67;;;4.23;;
17398;SDS011;8817;48.170;8.592;2023-01-29T08:43:59;4.53;;;4.33;;
17398;SDS011;8817;48.170;8.592;2023-01-29T08:46:28;5.00;;;4.70;;
17398;SDS011;8817;48.170;8.592;2023-01-29T08:48:55;4.40;;;4.20;;
17398;SDS011;8817;48.170;8.592;2023-01-29T08:51:23;3.97;;;3.87;;
17398;SDS011;8817;48.170;8.592;2023-01-29T08:53:50;4.37;;;4.17;;
17398;SDS011;8817;48.170;8.592;2023-01-29T08:56:18;4.77;;;4.47;;
17398;SDS011;8817;48.170;8.592;2023-01-29T08:58:45;4.90;;;4.60;;
17398;SDS011;8817;48.170;8.592;2023-01-29T09:01:13;4.30;;;4.20;;
17398;SDS011;8817;48.170;8.592;2023-01-29T09:03:40;4.47;;;4.27;;
17398;SDS011;8817;48.170;8.592;2023-01-29T09:06:08;4.97;;;4.70;;
17398;SDS011;8817;48.170;8.592;2023-01-29T09:08:36;4.53;;;4.27;;
17398;SDS011;8817;48.170;8.592;2023-01-29T09:11:04;4.23;;;4.13;;
17398;SDS011;8817;48.170;8.592;2023-01-29T09:13:31;6.20;;;5.60;;
17398;SDS011;8817;48.170;8.592;2023-01-29T09:15:58;5.77;;;5.27;;
17398;SDS011;8817;48.170;8.592;2023-01-29T09:18:27;5.03;;;4.70;;
17398;SDS011;8817;48.170;8.592;2023-01-29T09:20:55;5.57;;;5.07;;
17398;SDS011;8817;48.170;8.592;2023-01-29T09:23:22;4.57;;;4.37;;
17398;SDS011;8817;48.170;8.592;2023-01-29T09:25:49;4.40;;;4.20;;
17398;SDS011;8817;48.170;8.592;2023-01-29T09:28:16;4.37;;;4.27;;
17398;SDS011;8817;48.170;8.592;2023-01-29T09:30:43;4.87;;;4.47;;
17398;SDS011;8817;48.170;8.592;2023-01-29T09:33:10;4.70;;;4.47;;
17398;SDS011;8817;48.170;8.592;2023-01-29T09:35:40;5.13;;;4.73;;
17398;SDS011;8817;48.170;8.592;2023-01-29T09:38:08;4.90;;;4.63;;
17398;SDS011;8817;48.170;8.592;2023-01-29T09:40:37;4.87;;;4.50;;
17398;SDS011;8817;48.170;8.592;2023-01-29T09:43:15;5.50;;;5.10;;
17398;SDS011;8817;48.170;8.592;2023-01-29T09:45:48;4.70;;;4.40;;
17398;SDS011;8817;48.170;8.592;2023-01-29T09:48:18;4.60;;;4.30;;
17398;SDS011;8817;48.170;8.592;2023-01-29T09:50:50;4.87;;;4.57;;
17398;SDS011;8817;48.170;8.592;2023-01-29T09:53:20;5.00;;;4.60;;
17398;SDS011;8817;48.170;8.592;2023-01-29T09:55:52;4.97;;;4.57;;
17398;SDS011;8817;48.170;8.592;2023-01-29T09:58:24;10.13;;;4.37;;
17398;SDS011;8817;48.170;8.592;2023-01-29T10:00:58;4.73;;;4.53;;
17398;SDS011;8817;48.170;8.592;2023-01-29T10:03:35;4.50;;;4.30;;
17398;SDS011;8817;48.170;8.592;2023-01-29T10:06:25;4.53;;;4.23;;
17398;SDS011;8817;48.170;8.592;2023-01-29T10:09:04;4.70;;;4.40;;
17398;SDS011;8817;48.170;8.592;2023-01-29T10:11:48;4.80;;;4.50;;
17398;SDS011;8817;48.170;8.592;2023-01-29T10:14:29;4.97;;;4.67;;
17398;SDS011;8817;48.170;8.592;2023-01-29T10:17:08;4.30;;;4.13;;
17398;SDS011;8817;48.170;8.592;2023-01-29T10:20:01;4.57;;;4.37;;
17398;SDS011;8817;48.170;8.592;2023-01-29T10:22:47;5.17;;;4.87;;
17398;SDS011;8817;48.170;8.592;2023-01-29T10:25:22;5.23;;;4.93;;
17398;SDS011;8817;48.170;8.592;2023-01-29T10:27:50;4.87;;;4.63;;
17398;SDS011;8817;48.170;8.592;2023-01-29T10:30:20;5.30;;;4.90;;
17398;SDS011;8817;48.170;8.592;2023-01-29T10:32:55;5.17;;;4.67;;
17398;SDS011;8817;48.170;8.592;2023-01-29T10:35:27;8.60;;;5.70;;
17398;SDS011;8817;48.170;8.592;2023-01-29T10:38:01;7.10;;;5.60;;
17398;SDS011;8817;48.170;8.592;2023-01-29T10:40:47;6.83;;;5.93;;
17398;SDS011;8817;48.170;8.592;2023-01-29T10:43:21;5.00;;;4.60;;
17398;SDS011;8817;48.170;8.592;2023-01-29T10:45:56;4.97;;;4.60;;
17398;SDS011;8817;48.170;8.592;2023-01-29T10:48:39;4.57;;;4.23;;
17398;SDS011;8817;48.170;8.592;2023-01-29T10:51:20;4.77;;;4.40;;
17398;SDS011;8817;48.170;8.592;2023-01-29T10:54:02;4.53;;;4.30;;
17398;SDS011;8817;48.170;8.592;2023-01-29T10:56:43;4.97;;;4.63;;
17398;SDS011;8817;48.170;8.592;2023-01-29T10:59:27;4.97;;;4.57;;
17398;SDS011;8817;48.170;8.592;2023-01-29T11:02:14;5.17;;;4.80;;
17398;SDS011;8817;48.170;8.592;2023-01-29T11:04:43;5.27;;;4.87;;
17398;SDS011;8817;48.170;8.592;2023-01-29T11:07:10;5.17;;;4.77;;
17398;SDS011;8817;48.170;8.592;2023-01-29T11:09:41;5.00;;;4.60;;
17398;SDS011;8817;48.170;8.592;2023-01-29T11:12:12;5.03;;;4.73;;
17398;SDS011;8817;48.170;8.592;2023-01-29T11:14:42;4.63;;;4.33;;
17398;SDS011;8817;48.170;8.592;2023-01-29T11:17:14;4.83;;;4.53;;
17398;SDS011;8817;48.170;8.592;2023-01-29T11:19:44;6.83;;;5.40;;
17398;SDS011;8817;48.170;8.592;2023-01-29T11:22:13;5.10;;;4.70;;
17398;SDS011;8817;48.170;8.592;2023-01-29T11:24:42;5.37;;;4.73;;
17398;SDS011;8817;48.170;8.592;2023-01-29T11:27:13;5.07;;;4.77;;
17398;SDS011;8817;48.170;8.592;2023-01-29T11:29:45;4.87;;;4.57;;
17398;SDS011;8817;48.170;8.592;2023-01-29T11:32:14;5.57;;;5.07;;
17398;SDS011;8817;48.170;8.592;2023-01-29T11:35:00;5.23;;;4.83;;
17398;SDS011;8817;48.170;8.592;2023-01-29T11:37:34;5.40;;;5.03;;
17398;SDS011;8817;48.170;8.592;2023-01-29T11:43:19;4.87;;;4.57;;
17398;SDS011;8817;48.170;8.592;2023-01-29T11:45:55;4.57;;;4.37;;
17398;SDS011;8817;48.170;8.592;2023-01-29T11:48:26;4.70;;;4.40;;
17398;SDS011;8817;48.170;8.592;2023-01-29T11:50:59;4.80;;;4.40;;
17398;SDS011;8817;48.170;8.592;2023-01-29T11:53:32;5.20;;;4.77;;
17398;SDS011;8817;48.170;8.592;2023-01-29T11:56:03;5.73;;;5.00;;
17398;SDS011;8817;48.170;8.592;2023-01-29T11:58:33;5.00;;;4.70;;
17398;SDS011;8817;48.170;8.592;2023-01-29T12:01:01;4.97;;;4.60;;
17398;SDS011;8817;48.170;8.592;2023-01-29T12:03:31;5.20;;;4.80;;
17398;SDS011;8817;48.170;8.592;2023-01-29T12:06:02;5.30;;;4.87;;
17398;SDS011;8817;48.170;8.592;2023-01-29T12:08:33;5.50;;;5.00;;
17398;SDS011;8817;48.170;8.592;2023-01-29T12:11:06;5.60;;;5.17;;
17398;SDS011;8817;48.170;8.592;2023-01-29T12:13:36;5.47;;;5.07;;
17398;SDS011;8817;48.170;8.592;2023-01-29T12:16:09;5.90;;;5.40;;
17398;SDS011;8817;48.170;8.592;2023-01-29T12:18:49;5.63;;;4.60;;
17398;SDS011;8817;48.170;8.592;2023-01-29T12:21:21;5.10;;;4.80;;
17398;SDS011;8817;48.170;8.592;2023-01-29T12:23:56;5.77;;;5.20;;
17398;SDS011;8817;48.170;8.592;2023-01-29T12:26:27;5.73;;;5.00;;
17398;SDS011;8817;48.170;8.592;2023-01-29T12:29:04;5.60;;;5.10;;
17398;SDS011;8817;48.170;8.592;2023-01-29T12:31:45;5.60;;;5.20;;
17398;SDS011;8817;48.170;8.592;2023-01-29T12:34:22;5.60;;;5.10;;
17398;SDS011;8817;48.170;8.592;2023-01-29T12:36:58;5.10;;;4.80;;
17398;SDS011;8817;48.170;8.592;2023-01-29T12:39:29;5.50;;;4.97;;
17398;SDS011;8817;48.170;8.592;2023-01-29T12:41:57;5.43;;;4.87;;
17398;SDS011;8817;48.170;8.592;2023-01-29T12:44:31;4.93;;;4.63;;
17398;SDS011;8817;48.170;8.592;2023-01-29T12:47:06;5.67;;;5.17;;
17398;SDS011;8817;48.170;8.592;2023-01-29T12:49:40;5.60;;;5.10;;
17398;SDS011;8817;48.170;8.592;2023-01-29T12:52:09;5.23;;;4.73;;
17398;SDS011;8817;48.170;8.592;2023-01-29T12:54:43;5.23;;;4.77;;
17398;SDS011;8817;48.170;8.592;2023-01-29T12:57:18;5.73;;;5.20;;
17398;SDS011;8817;48.170;8.592;2023-01-29T12:59:50;5.27;;;4.83;;
17398;SDS011;8817;48.170;8.592;2023-01-29T13:02:29;5.40;;;5.00;;
17398;SDS011;8817;48.170;8.592;2023-01-29T13:05:01;5.20;;;4.87;;
17398;SDS011;8817;48.170;8.592;2023-01-29T13:07:33;4.87;;;4.57;;
17398;SDS011;8817;48.170;8.592;2023-01-29T13:10:06;5.33;;;4.87;;
17398;SDS011;8817;48.170;8.592;2023-01-29T13:12:35;5.83;;;5.30;;
17398;SDS011;8817;48.170;8.592;2023-01-29T13:15:08;5.40;;;5.00;;
17398;SDS011;8817;48.170;8.592;2023-01-29T13:17:43;6.07;;;5.47;;
17398;SDS011;8817;48.170;8.592;2023-01-29T13:20:15;5.93;;;5.40;;
17398;SDS011;8817;48.170;8.592;2023-01-29T13:22:46;6.17;;;5.57;;
17398;SDS011;8817;48.170;8.592;2023-01-29T13:25:16;5.50;;;5.00;;
17398;SDS011;8817;48.170;8.592;2023-01-29T13:27:44;6.03;;;5.43;;
17398;SDS011;8817;48.170;8.592;2023-01-29T13:32:56;5.67;;;5.20;;
17398;SDS011;8817;48.170;8.592;2023-01-29T13:35:33;6.17;;;5.50;;
17398;SDS011;8817;48.170;8.592;2023-01-29T13:38:02;6.07;;;5.57;;
17398;SDS011;8817;48.170;8.592;2023-01-29T13:40:31;7.27;;;5.63;;
17398;SDS011;8817;48.170;8.592;2023-01-29T13:42:59;5.80;;;5.20;;
17398;SDS011;8817;48.170;8.592;2023-01-29T13:45:30;6.30;;;5.70;;
17398;SDS011;8817;48.170;8.592;2023-01-29T13:48:08;6.17;;;5.53;;
17398;SDS011;8817;48.170;8.592;2023-01-29T13:50:37;8.73;;;6.53;;
17398;SDS011;8817;48.170;8.592;2023-01-29T13:53:07;8.30;;;5.40;;
17398;SDS011;8817;48.170;8.592;2023-01-29T13:55:46;5.80;;;5.17;;
17398;SDS011;8817;48.170;8.592;2023-01-29T13:58:13;6.63;;;5.93;;
17398;SDS011;8817;48.170;8.592;2023-01-29T14:00:47;5.67;;;5.20;;
17398;SDS011;8817;48.170;8.592;2023-01-29T14:06:10;6.07;;;5.47;;
17398;SDS011;8817;48.170;8.592;2023-01-29T14:08:57;6.53;;;5.93;;
17398;SDS011;8817;48.170;8.592;2023-01-29T14:11:35;7.37;;;6.13;;
17398;SDS011;8817;48.170;8.592;2023-01-29T14:14:02;6.67;;;5.37;;
17398;SDS011;8817;48.170;8.592;2023-01-29T14:17:09;5.77;;;5.17;;
17398;SDS011;8817;48.170;8.592;2023-01-29T14:19:37;5.63;;;5.13;;
17398;SDS011;8817;48.170;8.592;2023-01-29T14:22:15;6.30;;;5.63;;
17398;SDS011;8817;48.170;8.592;2023-01-29T14:24:46;7.33;;;5.80;;
17398;SDS011;8817;48.170;8.592;2023-01-29T14:27:16;8.40;;;6.07;;
17398;SDS011;8817;48.170;8.592;2023-01-29T14:29:46;6.33;;;5.53;;
17398;SDS011;8817;48.170;8.592;2023-01-29T14:32:19;7.90;;;5.87;;
17398;SDS011;8817;48.170;8.592;2023-01-29T14:34:49;7.77;;;5.93;;
17398;SDS011;8817;48.170;8.592;2023-01-29T14:37:18;7.27;;;5.67;;
17398;SDS011;8817;48.170;8.592;2023-01-29T14:39:48;6.17;;;5.57;;
17398;SDS011;8817;48.170;8.592;2023-01-29T14:42:17;5.70;;;5.20;;
17398;SDS011;8817;48.170;8.592;2023-01-29T14:47:53;5.53;;;5.13;;
17398;SDS011;8817;48.170;8.592;2023-01-29T14:53:26;6.77;;;6.17;;
17398;SDS011;8817;48.170;8.592;2023-01-29T14:56:00;8.90;;;6.13;;
17398;SDS011;8817;48.170;8.592;2023-01-29T14:58:34;7.70;;;5.67;;
17398;SDS011;8817;48.170;8.592;2023-01-29T15:01:04;5.60;;;5.10;;
17398;SDS011;8817;48.170;8.592;2023-01-29T15:03:41;6.87;;;5.53;;
17398;SDS011;8817;48.170;8.592;2023-01-29T15:06:17;6.10;;;5.50;;
17398;SDS011;8817;48.170;8.592;2023-01-29T15:08:49;5.07;;;4.77;;
17398;SDS011;8817;48.170;8.592;2023-01-29T15:11:24;5.47;;;5.07;;
17398;SDS011;8817;48.170;8.592;2023-01-29T15:14:01;5.60;;;5.10;;
17398;SDS011;8817;48.170;8.592;2023-01-29T15:16:42;5.87;;;5.43;;
17398;SDS011;8817;48.170;8.592;2023-01-29T15:19:15;6.03;;;5.60;;
17398;SDS011;8817;48.170;8.592;2023-01-29T15:22:05;6.23;;;5.60;;
17398;SDS011;8817;48.170;8.592;2023-01-29T15:24:37;6.20;;;5.77;;
17398;SDS011;8817;48.170;8.592;2023-01-29T15:27:05;5.50;;;5.00;;
17398;SDS011;8817;48.170;8.592;2023-01-29T15:29:36;6.37;;;5.47;;
17398;SDS011;8817;48.170;8.592;2023-01-29T15:32:03;6.50;;;5.80;;
17398;SDS011;8817;48.170;8.592;2023-01-29T15:34:32;5.27;;;4.87;;
17398;SDS011;8817;48.170;8.592;2023-01-29T15:36:59;5.80;;;5.40;;
17398;SDS011;8817;48.170;8.592;2023-01-29T15:39:27;5.63;;;5.13;;
17398;SDS011;8817;48.170;8.592;2023-01-29T15:42:09;6.17;;;5.57;;